createdAt,value
2023-04-21T00:02:13.993Z,101200.88
2023-04-21T00:04:40.548Z,101204.38
2023-04-21T00:07:07.156Z,101197.16
2023-04-21T03:41:47.990Z,101077.75
2023-04-21T03:44:14.478Z,101078.25
2023-04-21T03:46:41.008Z,101088.00
2023-04-21T03:49:07.488Z,101085.47
2023-04-21T03:51:33.964Z,101090.88
2023-04-21T03:54:00.448Z,101079.59
2023-04-21T03:56:26.976Z,101082.13
2023-04-21T03:58:54.827Z,101080.06
2023-04-21T04:01:21.312Z,101079.09
2023-04-21T04:03:47.949Z,101077.88
2023-04-21T04:06:14.665Z,101073.28
2023-04-21T04:08:41.149Z,101073.16
2023-04-21T04:11:07.699Z,101064.41
2023-04-21T04:13:34.219Z,101058.28
2023-04-21T04:16:02.127Z,101054.09
2023-04-21T04:18:28.646Z,101061.56
2023-04-21T04:20:55.237Z,101065.31
2023-04-21T04:23:21.689Z,101067.88
2023-04-21T04:25:48.235Z,101067.88
2023-04-21T04:28:14.781Z,101076.03
2023-04-21T04:30:41.403Z,101075.72
2023-04-21T04:33:09.256Z,101081.25
2023-04-21T04:35:35.808Z,101078.00
2023-04-21T04:38:02.331Z,101074.69
2023-04-21T04:40:28.778Z,101079.47
2023-04-21T04:42:55.288Z,101078.75
2023-04-21T04:45:21.948Z,101073.59
2023-04-21T04:47:49.294Z,101076.38
2023-04-21T04:50:17.185Z,101076.75
2023-04-21T04:52:43.676Z,101083.84
2023-04-21T04:55:10.180Z,101078.56
2023-04-21T04:57:36.674Z,101071.59
2023-04-21T05:00:03.463Z,101075.78
2023-04-21T05:02:29.978Z,101078.31
2023-04-21T05:04:56.762Z,101077.34
2023-04-21T05:07:24.591Z,101076.13
2023-04-21T05:09:51.141Z,101082.00
2023-04-21T05:12:17.613Z,101083.56
2023-04-21T05:14:44.112Z,101085.09
2023-04-21T05:17:10.632Z,101082.19
2023-04-21T05:19:37.236Z,101075.59
2023-04-21T05:22:03.719Z,101087.44
2023-04-21T05:24:31.587Z,101086.22
2023-04-21T05:26:58.138Z,101087.19
2023-04-21T05:29:24.716Z,101086.94
2023-04-21T05:31:51.222Z,101087.63
2023-04-21T05:34:17.913Z,101086.69
2023-04-21T05:36:44.651Z,101096.16
2023-04-21T05:39:11.117Z,101096.88
2023-04-21T05:41:38.921Z,101094.94
2023-04-21T05:44:05.497Z,101101.75
2023-04-21T05:46:32.142Z,101095.50
2023-04-21T05:48:58.761Z,101095.25
2023-04-21T05:51:25.263Z,101103.66
2023-04-21T05:53:51.806Z,101091.72
2023-04-21T05:56:18.423Z,101094.84
2023-04-21T05:58:46.214Z,101086.50
2023-04-21T06:01:12.723Z,101085.41
2023-04-21T06:03:39.366Z,101088.78
2023-04-21T06:06:06.494Z,101088.38
2023-04-21T06:08:33.240Z,101098.31
2023-04-21T06:10:59.730Z,101085.53
2023-04-21T06:13:26.181Z,101079.88
2023-04-21T06:15:54.144Z,101077.53
2023-04-21T06:18:20.669Z,101083.13
2023-04-21T06:20:50.341Z,101091.63
2023-04-21T06:23:16.861Z,101089.81
2023-04-21T06:25:43.369Z,101093.47
2023-04-21T06:28:09.853Z,101091.28
2023-04-21T06:30:36.338Z,101091.56
2023-04-21T06:33:04.254Z,101089.25
2023-04-21T06:35:31.034Z,101093.03
2023-04-21T06:37:57.507Z,101089.72
2023-04-21T06:40:23.984Z,101083.06
2023-04-21T06:42:50.486Z,101096.34
2023-04-21T06:45:16.967Z,101096.78
2023-04-21T06:47:43.512Z,101098.75
2023-04-21T06:50:11.550Z,101094.56
2023-04-21T06:52:38.018Z,101089.16
2023-04-21T06:55:05.573Z,101088.88
2023-04-21T06:57:32.059Z,101094.19
2023-04-21T06:59:58.605Z,101085.41
2023-04-21T07:02:25.186Z,101078.72
2023-04-21T07:04:51.841Z,101085.72
2023-04-21T07:07:19.762Z,101091.13
2023-04-21T07:09:46.349Z,101088.63
2023-04-21T07:12:12.859Z,101093.91
2023-04-21T07:14:39.365Z,101100.75
2023-04-21T07:17:05.919Z,101096.84
2023-04-21T07:19:32.511Z,101087.47
2023-04-21T07:21:59.000Z,101083.00
2023-04-21T07:24:26.903Z,101081.34
2023-04-21T07:26:53.431Z,101081.09
2023-04-21T07:29:20.108Z,101087.09
2023-04-21T07:31:46.727Z,101080.78
2023-04-21T07:34:13.194Z,101089.41
2023-04-21T07:36:39.747Z,101082.97
2023-04-21T07:39:06.213Z,101084.78
2023-04-21T07:41:34.086Z,101081.50
2023-04-21T07:44:00.617Z,101084.13
2023-04-21T07:46:27.163Z,101073.50
2023-04-21T07:48:53.702Z,101079.19
2023-04-21T07:51:20.148Z,101090.22
2023-04-21T07:53:46.674Z,101086.13
2023-04-21T07:56:13.252Z,101082.22
2023-04-21T07:58:41.126Z,101081.22
2023-04-21T08:01:07.889Z,101088.69
2023-04-21T08:03:34.478Z,101087.47
2023-04-21T08:06:01.722Z,101084.38
2023-04-21T08:08:30.133Z,101089.06
2023-04-21T08:10:57.990Z,101086.53
2023-04-21T08:13:24.512Z,101079.59
2023-04-21T08:15:52.757Z,101085.97
2023-04-21T08:18:22.207Z,101075.53
2023-04-21T08:20:49.072Z,101071.81
2023-04-21T08:23:15.775Z,101068.13
2023-04-21T08:25:42.338Z,101063.50
2023-04-21T08:28:08.864Z,101073.91
2023-04-21T08:30:35.442Z,101072.53
2023-04-21T08:33:03.550Z,101063.84
2023-04-21T08:35:30.215Z,101061.75
2023-04-21T08:37:56.755Z,101071.75
2023-04-21T08:40:32.107Z,101068.66
2023-04-21T08:42:59.538Z,101064.66
2023-04-21T08:45:27.808Z,101071.88
2023-04-21T08:47:55.763Z,101067.00
2023-04-21T08:50:27.210Z,101062.81
2023-04-21T08:52:54.327Z,101063.41
2023-04-21T08:55:25.217Z,101057.94
2023-04-21T08:57:51.736Z,101058.50
2023-04-21T09:00:18.650Z,101049.38
2023-04-21T09:03:00.868Z,101049.75
2023-04-21T09:05:31.159Z,101054.75
2023-04-21T09:08:08.595Z,101056.75
2023-04-21T09:10:42.809Z,101050.78
2023-04-21T09:13:09.538Z,101043.63
2023-04-21T09:15:39.149Z,101042.47
2023-04-21T09:18:11.082Z,101042.66
2023-04-21T09:20:39.054Z,101043.84
2023-04-21T09:23:05.924Z,101040.31
2023-04-21T09:25:33.112Z,101040.63
2023-04-21T09:28:00.261Z,101040.28
2023-04-21T09:30:26.947Z,101038.25
2023-04-21T09:32:56.952Z,101044.56
2023-04-21T09:35:27.868Z,101050.88
2023-04-21T09:37:55.680Z,101044.34
2023-04-21T09:40:22.325Z,101043.66
2023-04-21T09:42:48.835Z,101038.13
2023-04-21T09:47:49.156Z,101041.47
2023-04-21T09:50:19.661Z,101046.34
2023-04-21T09:52:53.075Z,101034.03
2023-04-21T09:55:24.820Z,101032.03
2023-04-21T09:57:54.092Z,101026.53
2023-04-21T10:00:22.707Z,101027.38
2023-04-21T10:02:51.182Z,101033.66
2023-04-21T10:05:17.969Z,101027.03
2023-04-21T10:07:45.350Z,101025.69
2023-04-21T10:10:19.022Z,101025.13
2023-04-21T10:12:47.034Z,101021.19
2023-04-21T10:15:29.728Z,101022.44
2023-04-21T10:18:11.344Z,101015.03
2023-04-21T10:20:51.191Z,101012.56
2023-04-21T10:23:26.704Z,101003.75
2023-04-21T10:25:53.228Z,101009.41
2023-04-21T10:28:38.607Z,101005.19
2023-04-21T10:31:17.922Z,101005.97
2023-04-21T10:34:12.619Z,100994.91
2023-04-21T10:36:47.063Z,100994.19
2023-04-21T10:39:26.219Z,100999.28
2023-04-21T10:41:55.543Z,100986.06
2023-04-21T10:44:23.357Z,100994.19
2023-04-21T10:46:51.112Z,100994.78
2023-04-21T10:49:22.677Z,100988.94
2023-04-21T10:52:06.049Z,100984.94
2023-04-21T10:54:37.869Z,100974.56
2023-04-21T10:57:07.143Z,100958.47
2023-04-21T10:59:36.219Z,100957.22
2023-04-21T11:02:03.007Z,100957.00
2023-04-21T11:04:31.608Z,100950.78
2023-04-21T11:07:10.280Z,100952.88
2023-04-21T11:09:37.936Z,100949.38
2023-04-21T11:12:07.034Z,100940.00
2023-04-21T11:14:37.125Z,100933.16
2023-04-21T11:17:03.970Z,100936.31
2023-04-21T11:19:32.259Z,100923.09
2023-04-21T11:21:58.858Z,100934.63
2023-04-21T11:24:25.494Z,100925.22
2023-04-21T11:26:51.974Z,100920.38
2023-04-21T11:29:18.475Z,100910.75
2023-04-21T11:31:46.661Z,100915.97
2023-04-21T11:34:14.002Z,100903.16
2023-04-21T11:36:42.059Z,100906.13
2023-04-21T11:39:10.247Z,100910.38
2023-04-21T11:41:39.666Z,100900.31
2023-04-21T11:44:06.164Z,100901.78
2023-04-21T11:46:32.974Z,100896.53
2023-04-21T11:49:02.552Z,100897.25
2023-04-21T11:51:33.482Z,100888.41
2023-04-21T11:54:00.271Z,100880.00
2023-04-21T11:56:26.877Z,100886.56
2023-04-21T11:58:53.664Z,100885.00
2023-04-21T12:01:21.312Z,100884.47
2023-04-21T12:03:52.348Z,100888.75
2023-04-21T12:06:24.311Z,100874.13
2023-04-21T12:08:55.718Z,100875.66
2023-04-21T12:11:23.189Z,100878.44
2023-04-21T12:13:49.787Z,100875.94
2023-04-21T12:16:16.291Z,100878.09
2023-04-21T12:18:42.821Z,100853.72
2023-04-21T12:21:09.324Z,100859.06
2023-04-21T12:23:37.131Z,100850.38
2023-04-21T12:26:03.807Z,100857.38
2023-04-21T12:28:30.285Z,100839.84
2023-04-21T12:30:56.800Z,100843.63
2023-04-21T12:33:23.421Z,100840.16
2023-04-21T12:35:50.016Z,100835.56
2023-04-21T12:38:16.516Z,100834.88
2023-04-21T12:40:44.342Z,100835.72
2023-04-21T12:43:10.865Z,100836.69
2023-04-21T12:45:37.420Z,100826.75
2023-04-21T12:48:04.096Z,100826.72
2023-04-21T12:50:30.767Z,100826.75
2023-04-21T12:52:57.295Z,100827.28
2023-04-21T12:55:23.844Z,100831.03
2023-04-21T12:57:51.764Z,100830.13
2023-04-21T13:00:18.641Z,100831.16
2023-04-21T13:02:45.312Z,100817.25
2023-04-21T13:05:12.076Z,100832.38
2023-04-21T13:07:38.710Z,100824.97
2023-04-21T13:10:06.275Z,100826.06
2023-04-21T13:12:32.959Z,100817.78
2023-04-21T13:15:00.951Z,100824.06
2023-04-21T13:17:27.505Z,100813.38
2023-04-21T13:19:54.033Z,100812.94
2023-04-21T13:22:20.487Z,100798.34
2023-04-21T13:24:46.965Z,100803.97
2023-04-21T13:27:13.520Z,100797.41
2023-04-21T13:29:40.121Z,100800.09
2023-04-21T13:32:08.160Z,100790.81
2023-04-21T13:34:34.897Z,100789.97
2023-04-21T13:37:01.856Z,100780.88
2023-04-21T13:39:28.398Z,100778.41
2023-04-21T13:41:54.864Z,100771.97
2023-04-21T13:44:21.445Z,100761.44
2023-04-21T13:46:48.101Z,100766.81
2023-04-21T13:49:15.997Z,100750.28
2023-04-21T13:51:42.502Z,100756.47
2023-04-21T13:54:09.018Z,100752.75
2023-04-21T13:56:36.455Z,100755.78
2023-04-21T13:59:03.090Z,100752.88
2023-04-21T14:01:29.648Z,100745.22
2023-04-21T14:03:56.506Z,100747.50
2023-04-21T14:06:25.224Z,100728.97
2023-04-21T14:08:51.740Z,100727.53
2023-04-21T14:11:18.329Z,100720.31
2023-04-21T14:14:00.705Z,100722.56
2023-04-21T14:16:31.400Z,100712.44
2023-04-21T14:18:58.111Z,100716.56
2023-04-21T14:21:25.985Z,100704.56
2023-04-21T14:23:52.690Z,100696.28
2023-04-21T14:26:19.478Z,100688.00
2023-04-21T14:28:46.069Z,100690.06
2023-04-21T14:31:12.570Z,100695.38
2023-04-21T14:33:39.101Z,100698.88
2023-04-21T14:36:05.968Z,100692.75
2023-04-21T14:38:34.599Z,100682.00
2023-04-21T14:41:01.200Z,100683.41
2023-04-21T14:43:27.752Z,100681.09
2023-04-21T14:45:54.345Z,100682.44
2023-04-21T14:48:21.190Z,100683.28
2023-04-21T14:50:47.861Z,100669.47
2023-04-21T14:53:14.420Z,100674.97
2023-04-21T14:55:42.303Z,100672.72
2023-04-21T14:58:08.877Z,100663.81
2023-04-21T15:00:35.459Z,100672.47
2023-04-21T15:03:02.552Z,100660.53
2023-04-21T15:05:29.296Z,100657.63
2023-04-21T15:07:55.836Z,100652.47
2023-04-21T15:10:22.464Z,100640.94
2023-04-21T15:12:50.384Z,100641.78
2023-04-21T15:15:16.902Z,100641.75
2023-04-21T15:17:43.388Z,100627.41
2023-04-21T15:20:10.865Z,100623.59
2023-04-21T15:22:37.556Z,100620.19
2023-04-21T15:25:04.732Z,100622.09
2023-04-21T15:27:31.272Z,100608.91
2023-04-21T15:29:59.077Z,100609.56
2023-04-21T15:32:25.641Z,100611.72
2023-04-21T15:34:52.139Z,100603.09
2023-04-21T15:37:18.627Z,100600.81
2023-04-21T15:39:45.208Z,100594.63
2023-04-21T15:42:11.787Z,100585.56
2023-04-21T15:44:38.285Z,100594.00
2023-04-21T15:47:06.196Z,100579.53
2023-04-21T15:49:32.789Z,100579.16
2023-04-21T15:51:59.448Z,100577.06
2023-04-21T15:54:26.069Z,100580.38
2023-04-21T15:56:52.566Z,100577.91
2023-04-21T15:59:19.060Z,100575.41
2023-04-21T16:01:45.695Z,100564.88
2023-04-21T16:04:13.939Z,100563.84
2023-04-21T16:06:40.648Z,100555.19
2023-04-21T16:09:07.186Z,100551.28
2023-04-21T16:11:33.760Z,100548.97
2023-04-21T16:14:00.431Z,100550.00
2023-04-21T16:16:27.008Z,100549.38
2023-04-21T16:18:53.948Z,100550.41
2023-04-21T16:21:21.886Z,100564.47
2023-04-21T16:23:48.729Z,100554.56
2023-04-21T16:26:15.370Z,100570.47
2023-04-21T16:28:41.970Z,100564.88
2023-04-21T16:31:08.578Z,100562.81
2023-04-21T16:33:35.114Z,100558.88
2023-04-21T16:36:01.652Z,100558.84
2023-04-21T16:38:29.539Z,100549.34
2023-04-21T16:40:56.026Z,100531.91
2023-04-21T16:43:22.630Z,100529.63
2023-04-21T16:45:49.290Z,100519.09
2023-04-21T16:48:15.987Z,100526.50
2023-04-21T16:50:42.625Z,100511.22
2023-04-21T16:53:09.141Z,100518.19
2023-04-21T16:55:37.127Z,100527.06
2023-04-21T16:58:03.659Z,100507.44
2023-04-21T17:00:30.213Z,100504.09
2023-04-21T17:02:56.944Z,100507.34
2023-04-21T17:05:23.514Z,100524.69
2023-04-21T17:07:50.230Z,100559.44
2023-04-21T17:10:17.357Z,100572.38
2023-04-21T17:12:45.181Z,100592.25
2023-04-21T17:15:11.843Z,100626.56
2023-04-21T17:17:41.292Z,100665.44
2023-04-21T17:20:09.349Z,100667.25
2023-04-21T17:22:35.864Z,100652.53
2023-04-21T17:25:02.545Z,100636.00
2023-04-21T17:27:29.070Z,100614.50
2023-04-21T17:29:57.169Z,100574.97
2023-04-21T17:32:23.882Z,100552.25
2023-04-21T17:34:50.456Z,100541.38
2023-04-21T17:37:16.969Z,100548.53
2023-04-21T17:39:43.468Z,100539.78
2023-04-21T17:42:09.954Z,100540.84
2023-04-21T17:44:36.670Z,100539.69
2023-04-21T17:47:04.912Z,100529.75
2023-04-21T17:49:31.608Z,100530.66
2023-04-21T17:51:58.095Z,100527.03
2023-04-21T17:54:24.748Z,100527.41
2023-04-21T17:56:51.293Z,100525.25
2023-04-21T17:59:17.817Z,100524.28
2023-04-21T18:01:44.391Z,100513.31
2023-04-21T18:04:12.470Z,100518.88
2023-04-21T18:06:40.143Z,100522.41
2023-04-21T18:09:06.615Z,100532.06
2023-04-21T18:11:33.103Z,100531.63
2023-04-21T18:13:59.945Z,100541.28
2023-04-21T18:16:27.055Z,100546.97
2023-04-21T18:18:53.625Z,100539.47
2023-04-21T18:21:21.585Z,100554.78
2023-04-21T18:23:48.097Z,100557.44
2023-04-21T18:26:14.655Z,100554.28
2023-04-21T18:28:41.139Z,100554.66
2023-04-21T18:31:07.801Z,100548.81
2023-04-21T18:33:34.529Z,100545.00
2023-04-21T18:36:01.121Z,100546.50
2023-04-21T18:38:28.982Z,100551.50
2023-04-21T18:40:55.596Z,100542.03
2023-04-21T18:43:22.341Z,100536.91
2023-04-21T18:45:48.835Z,100544.06
2023-04-21T18:48:15.350Z,100545.72
2023-04-21T18:50:41.821Z,100535.91
2023-04-21T18:53:08.917Z,100535.06
2023-04-21T18:55:36.903Z,100533.56
2023-04-21T18:58:03.598Z,100530.09
2023-04-21T19:00:30.402Z,100529.91
2023-04-21T19:02:57.171Z,100539.56
2023-04-21T19:05:23.768Z,100535.56
2023-04-21T19:07:50.251Z,100533.91
2023-04-21T19:10:17.179Z,100532.91
2023-04-21T19:12:45.120Z,100525.09
2023-04-21T19:15:11.988Z,100534.75
2023-04-21T19:17:38.518Z,100521.59
2023-04-21T19:20:06.155Z,100518.94
2023-04-21T19:22:32.664Z,100533.91
2023-04-21T19:24:59.129Z,100541.88
2023-04-21T19:27:25.679Z,100597.56
2023-04-21T19:29:53.556Z,100638.78
2023-04-21T19:32:20.307Z,100658.75
2023-04-21T19:34:47.055Z,100648.75
2023-04-21T19:37:13.703Z,100650.09
2023-04-21T19:39:40.236Z,100646.94
2023-04-21T19:42:06.704Z,100651.09
2023-04-21T19:44:33.474Z,100662.25
2023-04-21T19:47:01.582Z,100659.22
2023-04-21T19:49:28.753Z,100648.25
2023-04-21T19:51:55.209Z,100637.63
2023-04-21T19:54:21.834Z,100612.19
2023-04-21T19:56:48.365Z,100625.97
2023-04-21T19:59:14.838Z,100596.56
2023-04-21T20:01:41.714Z,100616.50
2023-04-21T20:04:11.914Z,100641.44
2023-04-21T20:06:38.996Z,100661.25
2023-04-21T20:09:05.530Z,100675.22
2023-04-21T20:11:32.128Z,100671.91
2023-04-21T20:13:58.628Z,100675.91
2023-04-21T20:16:26.501Z,100683.53
2023-04-21T20:18:53.089Z,100681.41
2023-04-21T20:21:21.040Z,100690.00
2023-04-21T20:23:47.517Z,100680.72
2023-04-21T20:26:14.069Z,100663.91
2023-04-21T20:28:40.553Z,100646.28
2023-04-21T20:31:07.108Z,100646.59
2023-04-21T20:33:33.624Z,100627.69
2023-04-21T20:36:00.291Z,100616.84
2023-04-21T20:38:28.238Z,100618.69
2023-04-21T20:40:54.752Z,100633.81
2023-04-21T20:43:21.264Z,100636.94
2023-04-21T20:45:47.748Z,100644.59
2023-04-21T20:48:14.440Z,100637.63
2023-04-21T20:50:41.289Z,100633.91
2023-04-21T20:53:08.736Z,100635.44
2023-04-21T20:55:36.687Z,100633.75
2023-04-21T20:58:03.691Z,100615.84
2023-04-21T21:00:30.313Z,100594.41
2023-04-21T21:02:56.953Z,100596.25
2023-04-21T21:05:23.558Z,100594.41
2023-04-21T21:07:50.103Z,100579.31
2023-04-21T21:10:18.454Z,100601.56
2023-04-21T21:12:46.454Z,100601.56
2023-04-21T21:15:12.977Z,100600.88
2023-04-21T21:17:39.546Z,100604.53
2023-04-21T21:20:07.414Z,100603.16
2023-04-21T21:22:33.939Z,100599.16
2023-04-21T21:25:00.394Z,100594.34
2023-04-21T21:27:26.877Z,100590.03
2023-04-21T21:29:54.683Z,100596.97
2023-04-21T21:32:21.176Z,100598.44
2023-04-21T21:34:47.663Z,100602.25
2023-04-21T21:37:14.126Z,100592.94
2023-04-21T21:39:40.735Z,100587.97
2023-04-21T21:42:07.367Z,100576.00
2023-04-21T21:44:33.846Z,100582.94
2023-04-21T21:47:01.739Z,100586.91
2023-04-21T21:49:28.268Z,100583.56
2023-04-21T21:51:54.845Z,100570.28
2023-04-21T21:54:21.322Z,100575.44
2023-04-21T21:56:48.075Z,100576.13
2023-04-21T21:59:14.710Z,100579.47
2023-04-21T22:01:41.492Z,100575.28
2023-04-21T22:04:09.473Z,100579.09
2023-04-21T22:06:36.037Z,100584.88
2023-04-21T22:09:02.581Z,100576.38
2023-04-21T22:11:29.089Z,100570.22
2023-04-21T22:13:55.558Z,100570.53
2023-04-21T22:16:22.154Z,100571.50
2023-04-21T22:18:48.734Z,100573.81
2023-04-21T22:21:16.565Z,100572.78
2023-04-21T22:23:43.038Z,100573.59
2023-04-21T22:26:09.571Z,100568.59
2023-04-21T22:28:36.154Z,100574.09
2023-04-21T22:31:02.723Z,100573.41
2023-04-21T22:33:29.300Z,100579.34
2023-04-21T22:35:55.783Z,100582.31
2023-04-21T22:38:23.575Z,100574.13
2023-04-21T22:40:50.102Z,100584.56
2023-04-21T22:43:16.636Z,100575.06
2023-04-21T22:45:43.097Z,100573.06
2023-04-21T22:48:09.641Z,100576.16
2023-04-21T22:50:36.188Z,100571.66
2023-04-21T22:53:02.712Z,100573.47
2023-04-21T22:55:30.558Z,100574.41
2023-04-21T22:57:57.109Z,100571.22
2023-04-21T23:00:23.817Z,100571.22
2023-04-21T23:02:50.478Z,100560.25
2023-04-21T23:05:17.315Z,100564.88
2023-04-21T23:07:43.820Z,100555.72
2023-04-21T23:10:10.643Z,100561.19
2023-04-21T23:12:38.566Z,100558.69
2023-04-21T23:15:06.154Z,100558.13
2023-04-21T23:17:32.728Z,100558.44
2023-04-21T23:19:59.273Z,100553.59
2023-04-21T23:22:26.261Z,100553.06
2023-04-21T23:24:52.857Z,100558.00
2023-04-21T23:27:19.388Z,100558.97
2023-04-21T23:29:47.228Z,100546.34
2023-04-21T23:32:13.808Z,100550.28
2023-04-21T23:34:40.367Z,100543.59
2023-04-21T23:37:06.867Z,100549.19
2023-04-21T23:39:33.370Z,100536.72
2023-04-21T23:41:59.912Z,100545.09
2023-04-21T23:44:26.476Z,100538.16
2023-04-21T23:46:54.288Z,100535.34
2023-04-21T23:49:20.735Z,100543.13
2023-04-21T23:51:47.326Z,100550.25
2023-04-21T23:54:13.846Z,100546.75
2023-04-21T23:56:40.345Z,100548.44
2023-04-21T23:59:06.875Z,100543.59
